Time;durP1;ratioP1;P1;durP2;ratioP2;P2;SDS_P1;SDS_P2;PMS_P1;PMS_P2;Temp;Humidity;BMP_temperature;BMP_pressure;BME280_temperature;BME280_humidity;BME280_pressure;Samples;Min_cycle;Max_cycle;Signal;HPM_P1;HPM_P2
2022/07/03 04:02:41;;;;;;;2.60;1.63;;;20.20;96.30;;;;;;4969530;28;20481;-79
2022/07/03 04:05:07;;;;;;;2.63;1.90;;;20.10;96.30;;;;;;4974276;28;20741;-79
2022/07/03 04:07:32;;;;;;;2.93;1.87;;;20.60;95.40;;;;;;4972271;28;20179;-80
2022/07/03 04:09:58;;;;;;;4.70;2.10;;;20.80;96.00;;;;;;4965588;28;20252;-79
2022/07/03 04:12:23;;;;;;;3.00;2.23;;;21.20;93.60;;;;;;4954216;28;20616;-80
2022/07/03 04:14:49;;;;;;;2.97;2.10;;;20.50;96.30;;;;;;4954418;28;20175;-76
2022/07/03 04:17:15;;;;;;;6.70;2.10;;;20.90;95.70;;;;;;4955074;29;20177;-76
2022/07/03 04:19:40;;;;;;;1.93;1.73;;;20.30;96.30;;;;;;4989251;28;20201;-76
2022/07/03 04:22:08;;;;;;;1.60;1.50;;;21.20;93.40;;;;;;4992626;28;20464;-76
2022/07/03 04:24:36;;;;;;;1.70;1.50;;;21.80;92.30;;;;;;4992421;28;20170;-77
2022/07/03 04:27:02;;;;;;;2.33;2.13;;;21.90;93.00;;;;;;4992530;28;20409;-77
2022/07/03 04:29:27;;;;;;;4.43;2.53;;;21.60;93.80;;;;;;4991986;28;20420;-77
2022/07/03 04:31:53;;;;;;;2.50;2.03;;;22.30;91.40;;;;;;4992474;28;20192;-76
2022/07/03 04:34:18;;;;;;;4.57;1.80;;;22.60;89.90;;;;;;4992434;28;20672;-77
2022/07/03 04:36:44;;;;;;;2.17;1.97;;;23.10;88.70;;;;;;4974612;28;20240;-77
2022/07/03 04:39:09;;;;;;;1.70;1.60;;;23.50;87.70;;;;;;4973247;28;20185;-76
2022/07/03 04:41:34;;;;;;;1.70;1.60;;;23.30;89.20;;;;;;4992345;28;20223;-77
2022/07/03 04:44:00;;;;;;;1.60;1.50;;;23.50;87.80;;;;;;4992465;28;20639;-77
2022/07/03 04:46:25;;;;;;;4.50;1.80;;;23.80;86.60;;;;;;4992320;28;20172;-78
2022/07/03 04:48:51;;;;;;;2.43;1.90;;;24.00;86.60;;;;;;4991898;28;20665;-77
2022/07/03 04:51:17;;;;;;;1.63;1.53;;;24.40;86.20;;;;;;4992391;28;20193;-77
2022/07/03 04:53:42;;;;;;;1.87;1.67;;;24.70;85.20;;;;;;4992218;28;20558;-77
2022/07/03 04:56:08;;;;;;;2.67;1.57;;;24.80;84.90;;;;;;4992394;28;20169;-77
2022/07/03 04:58:33;;;;;;;3.67;1.70;;;25.50;82.70;;;;;;4991799;28;20220;-77
2022/07/03 05:00:59;;;;;;;2.90;1.60;;;26.00;81.90;;;;;;4991876;28;20643;-77
2022/07/03 05:03:24;;;;;;;3.10;1.87;;;25.70;83.10;;;;;;4992310;28;20177;-78
2022/07/03 05:05:52;;;;;;;2.27;1.60;;;25.80;81.50;;;;;;4992442;28;20189;-77
2022/07/03 05:08:19;;;;;;;1.40;1.30;;;26.30;79.50;;;;;;4991747;28;20173;-77
2022/07/03 05:10:45;;;;;;;11.33;2.17;;;26.00;78.70;;;;;;4975198;28;20477;-77
2022/07/03 05:13:11;;;;;;;3.87;1.73;;;26.00;80.20;;;;;;4971530;28;20492;-78
2022/07/03 05:15:36;;;;;;;1.30;1.20;;;26.00;80.50;;;;;;4972959;28;20193;-77
2022/07/03 05:18:02;;;;;;;2.13;1.50;;;26.30;80.30;;;;;;4972153;28;20182;-77
2022/07/03 05:20:30;;;;;;;2.67;1.50;;;26.40;78.60;;;;;;4971430;28;20645;-77
2022/07/03 05:22:57;;;;;;;1.67;1.30;;;26.50;79.10;;;;;;4972708;28;20186;-77
2022/07/03 05:25:24;;;;;;;3.63;1.80;;;26.60;78.90;;;;;;4974421;28;20435;-80
2022/07/03 05:27:55;;;;;;;2.20;1.80;;;26.90;78.30;;;;;;4977928;28;20432;-80
2022/07/03 05:30:22;;;;;;;2.27;1.60;;;26.90;77.40;;;;;;4977759;28;20424;-79
2022/07/03 05:32:49;;;;;;;1.40;1.30;;;26.90;76.70;;;;;;4977331;28;20467;-77
2022/07/03 05:35:14;;;;;;;1.93;1.30;;;25.80;79.40;;;;;;4976277;28;20408;-77
2022/07/03 05:37:40;;;;;;;3.17;1.90;;;25.80;80.50;;;;;;4975378;28;20408;-77
2022/07/03 05:40:06;;;;;;;2.60;1.70;;;25.40;81.80;;;;;;4984501;28;20252;-78
2022/07/03 05:42:32;;;;;;;4.63;1.60;;;26.00;80.20;;;;;;4995363;28;20200;-77
2022/07/03 05:44:57;;;;;;;1.87;1.63;;;25.80;80.90;;;;;;4995615;28;20463;-77
2022/07/03 05:47:23;;;;;;;2.03;1.60;;;25.90;80.70;;;;;;4994187;28;20173;-77
2022/07/03 05:49:48;;;;;;;2.13;1.60;;;25.90;80.90;;;;;;4995153;28;20184;-77
2022/07/03 05:52:14;;;;;;;2.53;1.80;;;26.00;80.70;;;;;;4995014;28;20669;-77
2022/07/03 05:54:39;;;;;;;2.50;1.77;;;26.30;80.40;;;;;;4993972;28;20208;-77
2022/07/03 05:57:05;;;;;;;3.33;1.63;;;25.80;81.00;;;;;;4995428;28;20530;-77
2022/07/03 05:59:31;;;;;;;1.70;1.60;;;25.80;82.20;;;;;;4987863;28;20645;-77
2022/07/03 06:01:56;;;;;;;2.00;1.60;;;26.10;82.30;;;;;;4975611;28;20224;-78
2022/07/03 06:04:22;;;;;;;9.63;1.47;;;26.70;81.80;;;;;;4974559;28;20178;-77
2022/07/03 06:06:47;;;;;;;2.30;1.40;;;27.30;79.90;;;;;;4975602;28;20181;-77
2022/07/03 06:09:13;;;;;;;6.50;1.97;;;27.90;77.70;;;;;;4979641;28;20181;-78
2022/07/03 06:11:38;;;;;;;3.03;1.50;;;27.70;77.50;;;;;;4994891;28;20193;-77
2022/07/03 06:14:04;;;;;;;3.03;1.57;;;27.60;77.00;;;;;;4994965;28;20762;-77
2022/07/03 06:16:29;;;;;;;1.50;1.37;;;27.70;77.40;;;;;;4995000;28;20173;-78
2022/07/03 06:18:55;;;;;;;5.33;1.73;;;27.90;77.60;;;;;;4994325;28;20217;-79
2022/07/03 06:21:21;;;;;;;3.77;2.13;;;28.50;76.10;;;;;;4994767;28;20189;-77
2022/07/03 06:23:46;;;;;;;2.27;1.63;;;30.00;73.80;;;;;;4994804;28;20540;-77
2022/07/03 06:26:13;;;;;;;7.90;1.90;;;30.00;71.90;;;;;;4994802;28;20181;-77
2022/07/03 06:28:38;;;;;;;1.90;1.70;;;29.60;72.60;;;;;;4994179;28;20188;-77
2022/07/03 06:31:04;;;;;;;5.27;1.87;;;28.90;75.00;;;;;;4994664;28;20428;-77
2022/07/03 06:33:29;;;;;;;2.90;1.57;;;29.80;71.80;;;;;;4994619;28;20196;-79
2022/07/03 06:35:55;;;;;;;1.70;1.60;;;28.80;74.60;;;;;;4993246;28;20169;-77
2022/07/03 06:38:20;;;;;;;1.40;1.27;;;28.70;74.00;;;;;;4993504;28;20256;-77
2022/07/03 06:40:46;;;;;;;1.60;1.43;;;29.10;74.10;;;;;;4994487;28;20245;-78
2022/07/03 06:43:11;;;;;;;3.20;1.40;;;29.60;72.30;;;;;;4993228;28;20287;-77
2022/07/03 06:45:37;;;;;;;1.73;1.20;;;30.40;72.40;;;;;;4994505;28;20181;-77
2022/07/03 06:48:02;;;;;;;2.93;1.40;;;30.70;70.70;;;;;;4992942;28;20176;-78
2022/07/03 06:50:28;;;;;;;3.90;1.80;;;30.80;71.10;;;;;;4993788;28;20173;-80
2022/07/03 06:52:53;;;;;;;2.30;1.67;;;30.10;72.20;;;;;;4994002;28;20547;-77
2022/07/03 06:55:19;;;;;;;1.87;1.50;;;30.70;71.60;;;;;;4993819;28;20200;-77
2022/07/03 06:57:44;;;;;;;2.03;1.83;;;30.10;72.30;;;;;;4993374;28;20189;-78
2022/07/03 07:00:11;;;;;;;1.40;1.30;;;29.50;71.70;;;;;;4992625;28;20204;-77
2022/07/03 07:02:36;;;;;;;2.40;1.50;;;29.60;72.70;;;;;;4993464;28;20654;-77
2022/07/03 07:05:02;;;;;;;2.60;1.30;;;29.40;72.80;;;;;;4993852;28;20462;-77
2022/07/03 07:07:28;;;;;;;3.43;1.53;;;30.30;70.30;;;;;;4993082;28;20264;-80
2022/07/03 07:09:53;;;;;;;1.73;1.57;;;30.40;71.80;;;;;;4993649;28;20499;-78
2022/07/03 07:12:19;;;;;;;3.70;1.30;;;30.10;71.50;;;;;;4993475;28;20200;-79
2022/07/03 07:14:44;;;;;;;2.13;1.57;;;30.70;70.90;;;;;;4994009;28;20307;-77
2022/07/03 07:17:10;;;;;;;3.23;1.50;;;31.30;69.80;;;;;;4993609;28;20188;-77
2022/07/03 07:19:36;;;;;;;4.70;1.57;;;31.60;70.20;;;;;;4992600;28;20169;-79
2022/07/03 07:22:02;;;;;;;2.07;1.67;;;31.30;69.00;;;;;;4971787;28;20198;-76
2022/07/03 07:24:28;;;;;;;1.77;1.67;;;31.20;70.00;;;;;;4974458;28;20498;-77
2022/07/03 07:26:54;;;;;;;1.40;1.30;;;30.50;71.00;;;;;;4974340;28;20213;-77
2022/07/03 07:29:19;;;;;;;2.87;1.50;;;30.80;70.90;;;;;;4973797;28;20421;-77
2022/07/03 07:31:45;;;;;;;2.60;1.40;;;31.10;67.30;;;;;;4974189;28;20441;-76
2022/07/03 07:34:11;;;;;;;3.27;1.20;;;31.60;67.60;;;;;;4974022;28;20296;-76
2022/07/03 07:36:37;;;;;;;3.20;1.40;;;31.80;67.70;;;;;;4974237;28;20173;-76
2022/07/03 07:39:03;;;;;;;1.43;1.17;;;32.00;65.80;;;;;;4972264;28;20507;-76
2022/07/03 07:41:28;;;;;;;1.80;1.20;;;32.70;66.30;;;;;;4973772;28;20217;-76
2022/07/03 07:43:54;;;;;;;1.67;1.37;;;32.60;64.10;;;;;;4974050;28;20688;-79
2022/07/03 07:46:19;;;;;;;1.30;1.00;;;32.50;63.90;;;;;;4973972;28;20189;-76
2022/07/03 07:48:45;;;;;;;1.40;1.17;;;32.50;63.40;;;;;;4972507;28;20545;-76
2022/07/03 07:51:10;;;;;;;7.07;1.33;;;32.80;64.60;;;;;;4973736;28;20566;-79
2022/07/03 07:53:36;;;;;;;1.63;1.20;;;32.50;68.20;;;;;;4973654;28;20248;-77
2022/07/03 07:56:02;;;;;;;1.60;1.10;;;32.10;65.90;;;;;;4973430;28;20178;-76
2022/07/03 07:58:28;;;;;;;3.30;1.23;;;31.70;64.60;;;;;;4972854;28;20178;-77
2022/07/03 08:06:21;;;;;;;1.53;1.33;;;29.90;70.10;;;;;;4973640;28;20421;-76
2022/07/03 08:08:47;;;;;;;1.30;1.20;;;28.70;70.90;;;;;;4974122;28;20417;-77
2022/07/03 08:11:12;;;;;;;4.50;1.47;;;29.10;75.10;;;;;;4992835;28;20632;-76
2022/07/03 08:13:38;;;;;;;2.00;1.37;;;30.20;69.60;;;;;;4992829;28;20703;-76
2022/07/03 08:16:03;;;;;;;3.93;1.60;;;30.80;69.60;;;;;;4992765;28;20173;-77
2022/07/03 08:18:29;;;;;;;2.30;1.40;;;31.00;68.20;;;;;;4992141;28;20184;-79
2022/07/03 08:20:54;;;;;;;1.87;1.53;;;30.90;73.20;;;;;;4992716;28;20283;-77
2022/07/03 08:23:20;;;;;;;1.87;1.20;;;31.10;67.40;;;;;;4992800;28;20177;-77
2022/07/03 08:25:45;;;;;;;1.77;1.30;;;29.30;70.70;;;;;;4981052;28;20202;-77
2022/07/03 08:28:11;;;;;;;1.30;1.20;;;28.90;73.80;;;;;;4973972;28;20173;-78
2022/07/03 08:30:36;;;;;;;1.77;1.10;;;29.90;72.10;;;;;;4973669;28;20212;-76
2022/07/03 08:33:02;;;;;;;3.47;1.20;;;30.90;69.80;;;;;;4972682;28;20198;-78
2022/07/03 08:35:28;;;;;;;3.17;1.57;;;31.60;67.00;;;;;;4972865;28;20173;-77
2022/07/03 08:37:54;;;;;;;1.57;1.30;;;31.90;65.20;;;;;;4971215;28;20654;-76
2022/07/03 08:40:20;;;;;;;1.97;1.37;;;31.90;65.30;;;;;;4979504;28;20177;-76
2022/07/03 08:42:55;;;;;;;4.23;1.30;;;32.00;65.50;;;;;;4973149;28;20810;-77
2022/07/03 08:45:22;;;;;;;1.40;1.00;;;31.80;67.20;;;;;;4972088;28;20420;-78
2022/07/03 08:47:49;;;;;;;1.50;1.13;;;31.60;64.20;;;;;;4970748;28;20436;-77
2022/07/03 08:50:17;;;;;;;3.20;1.20;;;30.70;66.00;;;;;;4971477;28;20516;-78
2022/07/03 08:52:43;;;;;;;4.40;1.40;;;31.10;66.20;;;;;;4972413;28;20551;-77
2022/07/03 08:55:11;;;;;;;1.53;1.33;;;31.30;64.90;;;;;;4972596;28;20493;-77
2022/07/03 08:57:37;;;;;;;2.53;1.50;;;31.20;66.00;;;;;;4971395;28;20615;-77
2022/07/03 09:00:05;;;;;;;2.33;1.40;;;31.10;66.40;;;;;;4973902;28;20807;-76
2022/07/03 09:02:32;;;;;;;1.43;1.20;;;30.70;68.50;;;;;;4976596;28;20455;-76
2022/07/03 09:04:59;;;;;;;3.13;1.30;;;30.30;67.60;;;;;;4976638;28;20424;-76
2022/07/03 09:07:27;;;;;;;3.00;1.10;;;31.00;65.30;;;;;;4976675;28;20413;-78
2022/07/03 09:09:52;;;;;;;1.40;0.87;;;31.00;64.90;;;;;;4979802;28;20495;-76
2022/07/03 09:12:19;;;;;;;1.63;1.00;;;30.30;67.30;;;;;;4976410;28;20936;-76
2022/07/03 09:14:44;;;;;;;2.63;1.00;;;30.70;67.50;;;;;;4976494;28;20189;-76
2022/07/03 09:17:10;;;;;;;3.83;1.30;;;32.00;71.10;;;;;;4976540;28;20405;-77
2022/07/03 09:19:47;;;;;;;1.70;1.30;;;32.40;65.90;;;;;;4976340;28;20646;-76
2022/07/03 09:22:26;;;;;;;2.53;1.20;;;31.90;67.00;;;;;;4976394;28;20189;-76
2022/07/03 09:25:03;;;;;;;2.60;1.20;;;30.70;66.70;;;;;;4976486;28;20409;-76
2022/07/03 09:27:29;;;;;;;1.40;1.10;;;29.90;70.90;;;;;;4976200;28;20405;-76
2022/07/03 09:29:59;;;;;;;1.40;1.10;;;29.70;70.20;;;;;;4976368;28;20428;-76
2022/07/03 09:32:25;;;;;;;2.27;1.20;;;29.40;69.30;;;;;;4978298;28;20251;-76
2022/07/03 09:35:11;;;;;;;1.43;1.30;;;29.10;68.60;;;;;;4976198;28;20413;-77
2022/07/03 09:37:36;;;;;;;4.30;1.10;;;29.40;72.00;;;;;;4971283;28;20488;-77
2022/07/03 09:40:03;;;;;;;4.77;1.10;;;30.10;68.40;;;;;;4983106;28;20459;-76
2022/07/03 09:42:29;;;;;;;2.50;1.00;;;31.30;73.30;;;;;;4995088;28;20203;-77
2022/07/03 09:44:55;;;;;;;1.30;1.07;;;32.40;68.70;;;;;;4979763;28;20795;-76
2022/07/03 09:47:22;;;;;;;4.70;1.30;;;31.10;68.00;;;;;;4972160;28;20245;-77
2022/07/03 09:49:58;;;;;;;1.30;1.03;;;31.50;64.60;;;;;;4978632;28;20182;-77
2022/07/03 09:52:28;;;;;;;1.40;1.10;;;30.50;66.70;;;;;;4975348;28;20527;-76
2022/07/03 09:54:55;;;;;;;4.70;1.20;;;30.80;65.40;;;;;;4975810;28;20421;-76
2022/07/03 09:57:22;;;;;;;2.80;1.30;;;30.00;66.30;;;;;;4975675;28;20424;-77
2022/07/03 09:59:48;;;;;;;1.90;1.27;;;30.20;68.90;;;;;;4975560;28;20900;-77
2022/07/03 10:02:14;;;;;;;1.90;1.40;;;30.40;70.60;;;;;;4975453;28;20453;-76
2022/07/03 10:04:39;;;;;;;1.30;1.20;;;30.50;69.00;;;;;;4974921;28;20188;-76
2022/07/03 10:07:04;;;;;;;1.30;1.00;;;31.00;70.00;;;;;;4975717;28;20182;-77
2022/07/03 10:09:34;;;;;;;1.87;1.17;;;31.10;72.40;;;;;;4975362;28;20190;-77
2022/07/03 10:12:02;;;;;;;1.60;1.50;;;31.50;65.40;;;;;;4979983;28;20196;-75
2022/07/03 10:14:30;;;;;;;5.40;1.00;;;31.80;72.10;;;;;;4995538;28;20502;-77
2022/07/03 10:16:57;;;;;;;2.60;1.30;;;32.40;70.30;;;;;;5001274;28;20466;-78
2022/07/03 10:19:28;;;;;;;2.40;1.20;;;32.90;68.60;;;;;;4995926;28;20463;-78
2022/07/03 10:21:55;;;;;;;3.73;1.50;;;33.10;65.90;;;;;;4996156;28;20520;-77
2022/07/03 10:24:23;;;;;;;2.40;1.23;;;31.80;62.60;;;;;;4995706;28;20935;-77
2022/07/03 10:26:49;;;;;;;1.20;1.00;;;30.70;67.90;;;;;;4995350;28;20475;-78
2022/07/03 10:29:15;;;;;;;1.47;1.20;;;30.70;67.10;;;;;;4992864;28;20416;-77
2022/07/03 10:31:48;;;;;;;1.73;1.20;;;30.70;67.40;;;;;;4994767;28;20440;-78
2022/07/03 10:34:19;;;;;;;2.20;1.10;;;30.60;68.00;;;;;;4997517;28;20456;-78
2022/07/03 10:36:46;;;;;;;3.87;1.03;;;30.00;69.60;;;;;;4995825;28;20417;-78
2022/07/03 10:39:42;;;;;;;1.47;1.10;;;30.80;72.00;;;;;;4995682;28;20409;-78
2022/07/03 10:45:09;;;;;;;1.53;0.83;;;30.90;67.70;;;;;;4977683;28;20421;-78
2022/07/03 10:47:39;;;;;;;1.60;1.07;;;29.70;67.10;;;;;;4977075;28;20420;-78
2022/07/03 10:50:09;;;;;;;1.63;1.03;;;30.40;70.50;;;;;;4976965;28;20436;-78
2022/07/03 10:52:35;;;;;;;1.83;1.10;;;30.80;66.70;;;;;;4967667;28;20483;-77
2022/07/03 10:55:02;;;;;;;1.47;1.10;;;29.90;66.40;;;;;;4975074;28;20532;-77
2022/07/03 10:57:28;;;;;;;1.63;1.13;;;29.40;67.40;;;;;;4975617;28;20166;-78
2022/07/03 10:59:54;;;;;;;2.43;1.00;;;29.50;70.40;;;;;;4976817;28;20418;-78
2022/07/03 11:02:40;;;;;;;2.50;0.90;;;29.20;67.20;;;;;;4975751;28;20344;-78
2022/07/03 11:05:07;;;;;;;4.67;1.07;;;28.80;72.40;;;;;;4976350;28;20206;-78
2022/07/03 11:07:42;;;;;;;1.10;0.90;;;29.80;72.10;;;;;;4975759;28;20787;-78
2022/07/03 11:10:14;;;;;;;2.20;1.00;;;30.60;70.00;;;;;;4972936;28;20909;-76
2022/07/03 11:12:59;;;;;;;3.43;1.37;;;30.80;67.30;;;;;;4968095;28;20441;-77
2022/07/03 11:15:30;;;;;;;1.20;0.93;;;30.60;67.10;;;;;;4972728;28;20419;-77
2022/07/03 11:18:14;;;;;;;1.30;1.10;;;31.20;68.10;;;;;;4968175;28;20428;-77
2022/07/03 11:20:43;;;;;;;1.10;1.00;;;31.90;64.10;;;;;;4958694;28;20434;-76
2022/07/03 11:23:26;;;;;;;4.27;0.90;;;32.00;67.60;;;;;;4966130;28;20424;-76
2022/07/03 11:26:01;;;;;;;1.93;1.00;;;32.00;62.40;;;;;;4974134;28;20405;-76
2022/07/03 11:28:32;;;;;;;1.87;1.10;;;32.40;69.80;;;;;;4977159;28;20431;-76
2022/07/03 11:31:17;;;;;;;1.00;0.83;;;32.20;63.10;;;;;;4992391;28;20436;-77
2022/07/03 11:33:48;;;;;;;1.17;1.00;;;32.60;62.00;;;;;;4993725;28;20209;-77
2022/07/03 11:36:16;;;;;;;4.63;1.17;;;31.50;61.50;;;;;;4994440;28;20412;-77
2022/07/03 11:38:48;;;;;;;1.10;0.90;;;31.20;67.00;;;;;;4994859;28;20865;-78
2022/07/03 11:41:15;;;;;;;1.00;0.90;;;31.90;68.70;;;;;;4977799;28;20445;-78
2022/07/03 11:43:52;;;;;;;2.00;0.90;;;32.10;64.10;;;;;;4975748;28;20743;-78
2022/07/03 11:46:19;;;;;;;2.07;1.10;;;31.70;63.90;;;;;;4976459;28;20456;-77
2022/07/03 11:48:45;;;;;;;1.20;0.90;;;32.00;62.40;;;;;;4975758;28;20417;-78
2022/07/03 11:51:10;;;;;;;1.30;0.90;;;32.00;67.10;;;;;;4975879;28;20489;-78
2022/07/03 11:53:37;;;;;;;1.63;1.00;;;32.40;65.90;;;;;;4975620;28;20205;-77
2022/07/03 11:56:11;;;;;;;1.00;0.90;;;32.60;63.60;;;;;;4974000;28;20185;-76
2022/07/03 11:58:54;;;;;;;1.83;0.87;;;32.80;65.50;;;;;;4973757;28;20413;-77
2022/07/03 12:01:22;;;;;;;1.20;0.90;;;32.30;62.50;;;;;;4973205;28;20536;-76
2022/07/03 12:03:49;;;;;;;1.27;0.90;;;32.00;62.90;;;;;;4973697;28;20804;-76
2022/07/03 12:06:15;;;;;;;1.03;0.80;;;31.80;63.00;;;;;;4973500;28;20413;-76
2022/07/03 12:08:45;;;;;;;7.07;1.00;;;31.50;62.50;;;;;;4972864;28;20453;-76
2022/07/03 12:11:12;;;;;;;1.10;1.00;;;31.00;63.30;;;;;;4974187;28;20437;-77
2022/07/03 12:13:38;;;;;;;4.07;0.80;;;31.00;68.30;;;;;;4973467;28;20452;-77
2022/07/03 12:16:11;;;;;;;1.23;0.83;;;31.70;65.60;;;;;;4973420;28;20528;-75
2022/07/03 12:18:51;;;;;;;3.67;0.90;;;31.20;60.90;;;;;;4972362;28;20228;-76
2022/07/03 12:21:18;;;;;;;1.00;0.80;;;31.40;63.90;;;;;;4973510;28;20429;-77
2022/07/03 12:23:55;;;;;;;2.63;1.00;;;31.60;68.10;;;;;;4976027;28;20509;-77
2022/07/03 12:26:29;;;;;;;3.07;0.90;;;32.00;67.80;;;;;;4972969;28;20421;-78
2022/07/03 12:28:59;;;;;;;1.97;1.00;;;31.60;61.60;;;;;;4977273;28;20413;-77
2022/07/03 12:31:25;;;;;;;1.77;1.03;;;31.80;64.30;;;;;;4974790;28;20472;-78
2022/07/03 12:33:52;;;;;;;1.73;0.97;;;32.30;67.20;;;;;;4974591;28;20457;-77
2022/07/03 12:36:17;;;;;;;2.33;0.80;;;32.90;64.00;;;;;;4973680;28;20467;-77
2022/07/03 12:38:47;;;;;;;3.03;1.30;;;32.80;63.20;;;;;;4974035;28;20500;-77
2022/07/03 12:41:14;;;;;;;2.80;1.00;;;33.30;62.80;;;;;;4991409;28;20279;-78
2022/07/03 12:43:41;;;;;;;5.03;1.00;;;33.10;58.70;;;;;;4993679;28;20183;-78
2022/07/03 12:46:20;;;;;;;0.90;0.60;;;32.90;62.30;;;;;;4992962;28;20188;-78
2022/07/03 12:49:12;;;;;;;1.50;1.10;;;32.70;58.30;;;;;;4991888;28;20180;-75
2022/07/03 12:51:40;;;;;;;1.13;0.90;;;32.70;60.20;;;;;;4992943;28;20197;-75
2022/07/03 12:54:14;;;;;;;1.30;1.00;;;33.00;62.50;;;;;;4992833;28;20291;-76
2022/07/03 12:56:42;;;;;;;1.00;0.80;;;33.00;63.60;;;;;;4993171;28;20184;-77
2022/07/03 12:59:24;;;;;;;1.63;0.90;;;33.50;61.70;;;;;;4993264;28;20177;-77
2022/07/03 13:02:04;;;;;;;6.25;1.10;;;33.50;62.20;;;;;;4991800;28;20731;-77
2022/07/03 13:04:37;;;;;;;2.65;1.00;;;33.20;61.80;;;;;;4993254;28;20179;-78
2022/07/03 13:07:06;;;;;;;1.85;1.00;;;32.80;62.60;;;;;;4994254;28;20181;-77
2022/07/03 13:09:35;;;;;;;3.67;0.90;;;32.90;63.30;;;;;;4982657;28;20227;-78
2022/07/03 13:12:01;;;;;;;2.28;0.80;;;33.00;63.50;;;;;;4991921;28;20203;-78
2022/07/03 13:14:27;;;;;;;4.60;0.90;;;33.10;58.10;;;;;;4973283;28;20221;-77
2022/07/03 13:16:55;;;;;;;1.38;0.95;;;32.50;58.80;;;;;;4973322;28;20178;-77
2022/07/03 13:19:29;;;;;;;1.33;1.00;;;31.30;63.00;;;;;;4973620;28;20178;-78
2022/07/03 13:21:57;;;;;;;2.90;0.97;;;31.00;63.70;;;;;;4971856;28;20193;-78
2022/07/03 13:24:23;;;;;;;1.97;1.00;;;31.50;61.20;;;;;;4972768;28;20177;-77
2022/07/03 13:26:49;;;;;;;2.23;1.00;;;31.60;61.70;;;;;;4972135;28;20468;-77
2022/07/03 13:29:15;;;;;;;2.37;0.83;;;31.80;59.60;;;;;;4971338;28;20186;-77
2022/07/03 13:31:41;;;;;;;2.63;0.90;;;31.50;60.20;;;;;;4970291;28;20445;-77
2022/07/03 13:34:07;;;;;;;4.47;1.00;;;31.80;64.20;;;;;;4971503;28;20847;-77
2022/07/03 13:36:32;;;;;;;1.23;0.90;;;31.60;60.50;;;;;;4971664;28;20173;-77
2022/07/03 13:38:58;;;;;;;1.40;0.83;;;31.50;65.60;;;;;;4970653;28;20500;-77
2022/07/03 13:41:24;;;;;;;1.33;0.90;;;31.80;62.80;;;;;;4991354;28;20213;-77
2022/07/03 13:43:51;;;;;;;1.83;1.10;;;32.20;61.20;;;;;;4992132;28;20226;-77
2022/07/03 13:46:18;;;;;;;1.10;0.90;;;32.70;60.90;;;;;;4993379;28;20416;-78
2022/07/03 13:48:44;;;;;;;1.33;1.02;;;32.90;56.90;;;;;;4995519;28;20416;-76
2022/07/03 13:51:10;;;;;;;1.10;0.88;;;33.60;65.30;;;;;;4995519;28;20203;-76
2022/07/03 13:53:36;;;;;;;1.90;0.90;;;34.00;60.40;;;;;;4995119;28;20228;-76
2022/07/03 13:56:02;;;;;;;1.88;1.08;;;33.00;59.90;;;;;;4992191;28;20211;-75
2022/07/03 13:58:28;;;;;;;4.20;1.30;;;33.10;60.70;;;;;;4975834;28;20294;-77
2022/07/03 14:00:54;;;;;;;3.88;1.00;;;33.30;62.80;;;;;;4976100;28;20232;-78
2022/07/03 14:03:20;;;;;;;1.48;1.20;;;33.30;62.00;;;;;;4976426;28;20178;-78
2022/07/03 14:05:45;;;;;;;5.30;0.90;;;33.10;58.90;;;;;;4974352;28;20273;-78
2022/07/03 14:08:11;;;;;;;1.02;0.90;;;32.60;59.50;;;;;;4975572;28;20256;-78
2022/07/03 14:10:37;;;;;;;1.87;1.00;;;32.00;60.10;;;;;;4991211;28;20684;-78
2022/07/03 14:13:03;;;;;;;1.30;0.97;;;32.40;59.80;;;;;;4981250;28;20217;-77
2022/07/03 14:15:29;;;;;;;2.45;1.13;;;32.80;59.80;;;;;;4975839;28;20174;-76
2022/07/03 14:17:56;;;;;;;1.20;0.98;;;32.70;60.50;;;;;;4974113;28;20248;-77
2022/07/03 14:20:21;;;;;;;2.38;1.00;;;33.20;64.20;;;;;;4975262;28;20205;-75
2022/07/03 14:22:47;;;;;;;1.35;1.13;;;33.50;60.70;;;;;;4975188;28;20182;-76
2022/07/03 14:25:12;;;;;;;1.20;0.90;;;33.80;60.00;;;;;;4973989;28;20642;-76
2022/07/03 14:33:06;;;;;;;1.30;1.02;;;33.70;58.70;;;;;;4975325;28;20224;-76
2022/07/03 14:35:31;;;;;;;5.15;1.17;;;33.50;58.30;;;;;;4975049;28;20713;-76
2022/07/03 14:37:57;;;;;;;5.47;1.00;;;33.20;60.10;;;;;;4974876;28;20209;-76
2022/07/03 14:40:22;;;;;;;1.40;0.98;;;33.50;62.90;;;;;;4985778;28;20181;-76
2022/07/03 14:42:48;;;;;;;2.45;0.90;;;33.80;62.00;;;;;;4994593;28;20256;-76
2022/07/03 14:45:14;;;;;;;1.73;1.00;;;33.50;57.60;;;;;;4994462;28;20228;-77
2022/07/03 14:47:39;;;;;;;1.35;0.90;;;33.10;58.80;;;;;;4994298;28;20165;-76
2022/07/03 14:50:05;;;;;;;1.00;0.90;;;32.40;60.70;;;;;;4994296;28;20268;-76
2022/07/03 14:52:31;;;;;;;1.20;1.10;;;31.70;63.10;;;;;;4994225;28;20673;-76
2022/07/03 14:54:57;;;;;;;1.10;0.90;;;31.30;63.00;;;;;;4982449;28;20214;-76
2022/07/03 14:57:35;;;;;;;1.17;0.90;;;31.30;61.50;;;;;;4973051;28;20602;-76
2022/07/03 15:00:14;;;;;;;2.23;1.00;;;31.10;63.40;;;;;;4974788;28;20184;-76
2022/07/03 15:03:05;;;;;;;1.07;0.90;;;31.70;60.70;;;;;;4953944;29;20466;-75
2022/07/03 15:05:32;;;;;;;1.83;1.03;;;31.70;62.10;;;;;;4967005;28;20174;-76
2022/07/03 15:08:00;;;;;;;1.30;1.07;;;31.50;62.70;;;;;;4974374;28;20428;-76
2022/07/03 15:10:26;;;;;;;1.40;0.97;;;31.00;62.20;;;;;;5072895;23;20233;-66
2022/07/03 15:12:53;;;;;;;1.53;0.80;;;31.00;63.20;;;;;;5196940;23;20582;-66
2022/07/03 15:15:23;;;;;;;2.60;1.10;;;31.50;62.50;;;;;;4986513;28;20184;-66
2022/07/03 15:17:50;;;;;;;2.33;0.93;;;32.10;61.90;;;;;;4985216;28;20421;-66
2022/07/03 15:20:17;;;;;;;2.23;1.10;;;32.00;61.70;;;;;;4980717;28;20427;-66
2022/07/03 15:22:44;;;;;;;1.20;0.83;;;32.00;61.10;;;;;;4988309;28;20431;-67
2022/07/03 15:25:11;;;;;;;2.40;1.40;;;31.60;60.70;;;;;;4992830;28;20451;-67
2022/07/03 15:27:37;;;;;;;1.10;0.97;;;30.90;61.50;;;;;;4981731;28;20418;-67
2022/07/03 15:30:05;;;;;;;5.23;1.50;;;30.60;61.80;;;;;;4977989;28;20418;-67
2022/07/03 15:32:31;;;;;;;3.80;1.00;;;30.50;62.00;;;;;;4979163;28;20181;-68
2022/07/03 15:34:56;;;;;;;2.03;1.17;;;30.80;67.70;;;;;;4974450;28;20457;-68
2022/07/03 15:37:49;;;;;;;2.73;0.93;;;31.20;63.50;;;;;;4974264;28;20178;-67
2022/07/03 15:40:34;;;;;;;1.00;0.83;;;31.40;65.80;;;;;;4979294;28;20176;-68
2022/07/03 15:43:33;;;;;;;3.00;1.23;;;31.80;64.30;;;;;;4978717;28;20939;-68
2022/07/03 15:46:09;;;;;;;1.20;0.83;;;32.10;60.60;;;;;;4981372;28;20455;-68
2022/07/03 15:48:47;;;;;;;1.00;0.90;;;32.10;59.60;;;;;;4985069;28;20430;-67
2022/07/03 15:51:25;;;;;;;1.43;0.80;;;32.30;59.10;;;;;;4982544;28;20448;-68
2022/07/03 15:53:56;;;;;;;4.40;1.00;;;32.10;61.60;;;;;;4987214;28;20470;-68
2022/07/03 15:56:27;;;;;;;1.77;1.00;;;32.20;63.70;;;;;;4983987;28;20264;-68
2022/07/03 15:58:59;;;;;;;2.23;1.17;;;32.20;63.20;;;;;;4988223;28;20427;-68
2022/07/03 16:04:29;;;;;;;3.10;0.90;;;32.20;61.20;;;;;;5000567;28;20434;-68
2022/07/03 16:06:55;;;;;;;1.30;0.93;;;32.00;60.60;;;;;;5002529;28;20416;-68
2022/07/03 16:09:21;;;;;;;4.33;0.97;;;32.00;61.60;;;;;;5005794;28;20435;-67
2022/07/03 16:11:47;;;;;;;1.67;0.87;;;32.10;59.80;;;;;;4999842;28;20428;-68
2022/07/03 16:14:14;;;;;;;1.53;0.90;;;31.80;60.50;;;;;;4994744;28;20463;-68
2022/07/03 16:16:42;;;;;;;3.20;0.80;;;31.90;61.50;;;;;;4987788;28;20204;-67
2022/07/03 16:19:10;;;;;;;1.20;1.00;;;31.80;62.60;;;;;;5010429;28;20469;-68
2022/07/03 16:21:37;;;;;;;1.20;0.80;;;31.30;62.50;;;;;;5002261;28;20469;-68
2022/07/03 16:24:04;;;;;;;1.27;0.80;;;31.40;61.90;;;;;;5002162;28;20530;-69
2022/07/03 16:26:29;;;;;;;5.13;1.10;;;31.70;62.40;;;;;;4995647;28;20424;-69
2022/07/03 16:28:55;;;;;;;1.20;0.90;;;31.60;60.20;;;;;;4987684;28;20518;-68
2022/07/03 16:31:25;;;;;;;3.57;1.00;;;31.40;60.40;;;;;;5019340;28;20198;-69
2022/07/03 16:34:03;;;;;;;1.37;1.10;;;31.70;64.10;;;;;;5018972;28;20443;-69
2022/07/03 16:36:32;;;;;;;1.37;0.87;;;31.50;62.20;;;;;;5007988;28;20420;-69
2022/07/03 16:39:05;;;;;;;6.83;1.27;;;31.60;61.20;;;;;;5016896;28;20412;-69
2022/07/03 16:41:33;;;;;;;2.63;1.03;;;31.40;61.80;;;;;;4998272;28;20830;-69
2022/07/03 16:44:03;;;;;;;3.03;1.20;;;31.20;61.20;;;;;;5002865;28;20528;-69
2022/07/03 16:46:29;;;;;;;6.70;1.20;;;31.20;62.20;;;;;;5013423;28;20422;-68
2022/07/03 16:48:56;;;;;;;437.33;392.17;;;31.20;62.20;;;;;;4984344;28;20447;-68
2022/07/03 16:51:27;;;;;;;661.20;598.20;;;31.30;64.00;;;;;;5003044;28;20184;-69
2022/07/03 16:53:53;;;;;;;547.53;498.57;;;31.30;62.80;;;;;;5009364;28;20455;-68
2022/07/03 16:56:19;;;;;;;4.47;4.07;;;31.10;61.30;;;;;;4997182;28;20416;-66
2022/07/03 16:58:45;;;;;;;1.73;1.63;;;31.10;64.70;;;;;;4988189;28;20495;-68
2022/07/03 17:01:11;;;;;;;1.97;1.77;;;31.30;63.50;;;;;;4986290;28;20177;-69
2022/07/03 17:03:39;;;;;;;1.40;1.23;;;31.20;63.80;;;;;;4981438;28;20523;-69
2022/07/03 17:06:05;;;;;;;1.63;1.03;;;30.80;63.40;;;;;;4982630;28;20475;-69
2022/07/03 17:08:32;;;;;;;4.50;2.03;;;30.90;64.40;;;;;;4984235;28;20438;-69